Time;durP1;ratioP1;P1;durP2;ratioP2;P2;SDS_P1;SDS_P2;PMS_P1;PMS_P2;Temp;Humidity;BMP_temperature;BMP_pressure;BME280_temperature;BME280_humidity;BME280_pressure;Samples;Min_cycle;Max_cycle;Signal;HPM_P1;HPM_P2
2021/12/01 00:02:09;;;;;;;1.10;1.08;;;8.60;99.90;;;;;;5034464;28;20049;-78
2021/12/01 00:04:34;;;;;;;0.63;0.63;;;8.60;99.90;;;;;;5034459;28;20049;-77
2021/12/01 00:07:00;;;;;;;2.13;0.85;;;8.70;99.90;;;;;;5034050;28;20052;-79
2021/12/01 00:09:25;;;;;;;0.70;0.70;;;8.70;99.90;;;;;;5034264;28;20535;-77
2021/12/01 00:11:51;;;;;;;1.60;1.00;;;8.70;99.90;;;;;;5034363;28;20109;-77
2021/12/01 00:14:16;;;;;;;1.08;1.02;;;8.70;99.90;;;;;;5034604;28;20045;-77
2021/12/01 00:16:42;;;;;;;1.55;1.15;;;8.70;99.90;;;;;;5017237;28;20091;-77
2021/12/01 00:19:08;;;;;;;1.23;1.13;;;8.70;99.90;;;;;;5033985;28;20037;-78
2021/12/01 00:21:33;;;;;;;1.08;0.98;;;8.70;99.90;;;;;;5034170;28;20061;-78
2021/12/01 00:23:59;;;;;;;0.60;0.60;;;8.80;99.90;;;;;;5034159;28;20041;-78
2021/12/01 00:26:24;;;;;;;1.38;0.77;;;8.80;99.90;;;;;;5034538;28;20099;-78
2021/12/01 00:28:50;;;;;;;1.55;1.30;;;8.80;99.90;;;;;;5034061;28;20073;-78
2021/12/01 00:31:16;;;;;;;1.55;1.02;;;8.80;99.90;;;;;;5034055;28;20138;-78
2021/12/01 00:33:42;;;;;;;0.73;0.73;;;8.80;99.90;;;;;;5033984;28;20044;-77
2021/12/01 00:36:13;;;;;;;0.50;0.50;;;8.80;99.90;;;;;;5033725;28;20052;-77
2021/12/01 00:38:39;;;;;;;1.20;1.10;;;8.80;99.90;;;;;;5034353;28;20041;-77
2021/12/01 00:41:07;;;;;;;4.33;1.10;;;8.80;99.90;;;;;;5033992;28;20041;-78
2021/12/01 00:43:35;;;;;;;0.88;0.88;;;8.80;99.90;;;;;;5033863;28;20046;-78
2021/12/01 00:46:10;;;;;;;0.93;0.85;;;8.80;99.90;;;;;;5033832;28;20037;-78
2021/12/01 00:48:36;;;;;;;1.10;0.98;;;8.80;99.90;;;;;;5033800;28;20401;-77
2021/12/01 00:51:02;;;;;;;1.45;1.35;;;8.90;99.90;;;;;;5033695;28;20042;-77
2021/12/01 00:53:28;;;;;;;0.50;0.50;;;8.80;99.90;;;;;;5033804;28;20088;-78
2021/12/01 00:55:53;;;;;;;0.90;0.90;;;8.90;99.90;;;;;;5033740;28;20045;-78
2021/12/01 00:58:20;;;;;;;0.82;0.82;;;8.90;99.90;;;;;;5033740;28;20041;-77
2021/12/01 01:00:49;;;;;;;1.73;1.63;;;8.90;99.90;;;;;;5033667;28;20037;-77
2021/12/01 01:03:15;;;;;;;1.48;1.25;;;8.90;99.90;;;;;;5033562;28;20094;-77
2021/12/01 01:05:41;;;;;;;1.38;1.30;;;8.90;99.90;;;;;;5033593;28;20553;-78
2021/12/01 01:08:07;;;;;;;1.67;1.58;;;8.90;99.90;;;;;;5033601;28;20147;-77
2021/12/01 01:18:39;;;;;;;1.15;1.13;;;8.90;99.90;;;;;;5033486;28;20045;-78
2021/12/01 01:21:06;;;;;;;0.77;0.77;;;8.90;99.90;;;;;;5036938;28;20076;-77
2021/12/01 01:23:33;;;;;;;1.40;0.70;;;8.90;99.90;;;;;;5037136;28;20056;-76
2021/12/01 01:26:00;;;;;;;0.82;0.80;;;9.00;99.90;;;;;;5037510;28;20052;-77
2021/12/01 01:28:26;;;;;;;0.70;0.70;;;9.00;99.90;;;;;;5037392;28;20049;-76
2021/12/01 01:30:53;;;;;;;0.80;0.80;;;9.00;99.90;;;;;;5037448;28;20370;-77
2021/12/01 01:33:20;;;;;;;0.80;0.80;;;9.00;99.90;;;;;;5037301;28;20052;-76
2021/12/01 01:35:45;;;;;;;;;;;9.00;99.90;;;;;;5037660;28;20191;-77
2021/12/01 01:38:11;;;;;;;1.17;1.08;;;9.00;99.90;;;;;;5037172;28;20006;-76
2021/12/01 01:40:37;;;;;;;0.88;0.88;;;9.00;99.90;;;;;;5037198;28;20045;-75
2021/12/01 01:43:04;;;;;;;0.63;0.63;;;9.00;99.90;;;;;;5037079;28;20088;-77
2021/12/01 01:45:29;;;;;;;1.08;1.05;;;9.00;99.90;;;;;;5037066;28;20061;-75
2021/12/01 01:48:06;;;;;;;0.55;0.55;;;9.10;99.90;;;;;;5036977;28;20053;-76
2021/12/01 01:50:37;;;;;;;0.77;0.77;;;9.00;99.90;;;;;;5037084;28;20099;-77
2021/12/01 01:53:09;;;;;;;2.00;1.13;;;9.10;99.90;;;;;;5036038;28;20088;-76
2021/12/01 01:55:38;;;;;;;0.80;0.80;;;9.10;99.90;;;;;;5036929;28;20056;-76
2021/12/01 01:58:04;;;;;;;1.25;1.15;;;9.10;99.90;;;;;;5036761;28;20045;-76
2021/12/01 02:00:30;;;;;;;0.57;0.57;;;9.10;99.90;;;;;;5036874;28;20505;-77
2021/12/01 02:02:58;;;;;;;0.60;0.60;;;9.10;99.90;;;;;;5019079;28;20064;-76
2021/12/01 02:05:23;;;;;;;1.55;1.30;;;9.10;99.90;;;;;;5036668;28;20087;-77
2021/12/01 02:07:52;;;;;;;0.85;0.85;;;9.10;99.90;;;;;;5036693;28;20089;-76
2021/12/01 02:10:18;;;;;;;0.70;0.70;;;9.10;99.90;;;;;;5036278;28;20044;-76
2021/12/01 02:12:43;;;;;;;1.38;1.25;;;9.20;99.90;;;;;;5018939;28;20499;-76
2021/12/01 02:15:10;;;;;;;1.40;1.30;;;9.20;99.90;;;;;;5019167;28;20386;-77
2021/12/01 02:17:36;;;;;;;1.00;0.98;;;9.20;99.90;;;;;;5036606;28;20049;-76
2021/12/01 02:20:10;;;;;;;1.35;1.25;;;9.20;99.90;;;;;;5036045;28;20553;-77
2021/12/01 02:22:35;;;;;;;0.73;0.73;;;9.20;99.90;;;;;;5036389;28;20053;-76
2021/12/01 02:25:01;;;;;;;1.38;1.27;;;9.20;99.90;;;;;;5036346;28;20043;-77
2021/12/01 02:27:27;;;;;;;0.95;0.95;;;9.20;99.90;;;;;;5036503;28;20049;-77
2021/12/01 02:29:52;;;;;;;0.50;0.50;;;9.20;99.90;;;;;;5036173;28;20041;-76
2021/12/01 02:32:18;;;;;;;0.50;0.50;;;9.20;99.90;;;;;;5036094;28;20052;-76
2021/12/01 02:34:44;;;;;;;0.50;0.50;;;9.20;99.90;;;;;;5018797;28;20440;-76
2021/12/01 02:37:10;;;;;;;0.68;0.68;;;9.20;99.90;;;;;;5036128;28;20045;-76
2021/12/01 02:39:36;;;;;;;0.95;0.73;;;9.20;99.90;;;;;;5035770;28;20485;-77
2021/12/01 02:42:07;;;;;;;0.50;0.50;;;9.20;99.90;;;;;;5036070;28;20045;-77
2021/12/01 02:44:34;;;;;;;1.65;1.55;;;9.20;99.90;;;;;;5018544;28;20077;-77
2021/12/01 02:47:01;;;;;;;0.77;0.77;;;9.30;99.90;;;;;;5036105;28;20370;-77
2021/12/01 02:49:28;;;;;;;0.90;0.85;;;9.50;99.90;;;;;;5035918;28;20088;-77
2021/12/01 02:51:56;;;;;;;0.73;0.73;;;9.30;99.90;;;;;;5035808;28;20102;-78
2021/12/01 02:54:22;;;;;;;1.25;1.15;;;9.30;99.90;;;;;;5035769;28;20057;-76
2021/12/01 02:56:50;;;;;;;1.67;1.30;;;9.30;99.90;;;;;;5035717;28;20049;-77
2021/12/01 02:59:16;;;;;;;0.60;0.60;;;9.30;99.90;;;;;;5035589;28;20045;-77
2021/12/01 03:01:42;;;;;;;0.77;0.77;;;9.30;99.90;;;;;;5035752;28;20393;-77
2021/12/01 03:04:09;;;;;;;0.50;0.50;;;9.30;99.90;;;;;;5035675;28;20049;-78
2021/12/01 03:06:36;;;;;;;0.40;0.40;;;9.30;99.90;;;;;;5035679;28;20038;-78
2021/12/01 03:09:06;;;;;;;0.50;0.50;;;9.30;99.90;;;;;;5035490;28;20050;-77
2021/12/01 03:11:31;;;;;;;0.40;0.40;;;9.40;99.90;;;;;;5035414;28;20056;-77
2021/12/01 03:13:57;;;;;;;0.40;0.40;;;9.40;99.90;;;;;;5035848;28;20045;-77
2021/12/01 03:16:23;;;;;;;0.50;0.50;;;9.40;99.90;;;;;;5017768;28;20045;-78
2021/12/01 03:18:49;;;;;;;0.40;0.40;;;9.40;99.90;;;;;;5035378;28;20037;-77
2021/12/01 03:21:15;;;;;;;0.40;0.40;;;9.40;99.90;;;;;;5035106;28;20059;-77
2021/12/01 03:23:41;;;;;;;0.40;0.40;;;9.40;99.90;;;;;;5035196;28;20042;-77
2021/12/01 03:26:07;;;;;;;0.40;0.40;;;9.40;99.90;;;;;;5033862;28;20046;-77
2021/12/01 03:28:33;;;;;;;0.40;0.40;;;9.40;99.90;;;;;;5035193;28;20398;-77
2021/12/01 03:30:59;;;;;;;0.50;0.50;;;9.40;99.90;;;;;;5035399;28;20367;-77
2021/12/01 03:33:26;;;;;;;0.40;0.40;;;9.40;99.90;;;;;;5035109;28;20088;-77
2021/12/01 03:35:53;;;;;;;0.40;0.40;;;9.50;99.90;;;;;;5035088;28;20052;-78
2021/12/01 03:38:21;;;;;;;0.40;0.40;;;9.40;99.90;;;;;;5034882;28;20100;-77
2021/12/01 03:40:48;;;;;;;0.50;0.50;;;9.40;99.90;;;;;;5034893;28;20052;-77
2021/12/01 03:43:14;;;;;;;0.50;0.50;;;9.40;99.90;;;;;;5034224;28;20068;-77
2021/12/01 03:45:39;;;;;;;0.60;0.60;;;9.40;99.90;;;;;;5034829;28;20041;-78
2021/12/01 03:48:09;;;;;;;0.82;0.82;;;9.40;99.90;;;;;;5034804;28;20077;-78
2021/12/01 03:50:36;;;;;;;0.75;0.75;;;9.40;99.90;;;;;;5034869;28;20045;-78
2021/12/01 03:53:02;;;;;;;0.50;0.50;;;9.40;99.90;;;;;;5034359;28;20477;-77
2021/12/01 03:55:28;;;;;;;0.40;0.40;;;9.40;99.90;;;;;;5034488;28;20485;-77
2021/12/01 03:57:53;;;;;;;0.40;0.40;;;9.40;99.90;;;;;;5034878;28;20041;-77
2021/12/01 04:00:19;;;;;;;0.57;0.55;;;9.40;99.90;;;;;;5034577;28;20037;-77
2021/12/01 04:02:46;;;;;;;0.40;0.40;;;9.40;99.90;;;;;;5034652;28;20048;-77
2021/12/01 04:05:12;;;;;;;0.50;0.50;;;9.40;99.90;;;;;;5034157;28;20041;-78
2021/12/01 04:07:38;;;;;;;0.40;0.40;;;9.40;99.90;;;;;;5016724;28;20508;-77
2021/12/01 04:10:07;;;;;;;0.47;0.47;;;9.40;99.90;;;;;;5034270;28;20091;-78
2021/12/01 04:12:33;;;;;;;0.50;0.50;;;9.40;99.90;;;;;;5034248;28;20049;-78
2021/12/01 04:14:59;;;;;;;0.40;0.40;;;9.40;99.90;;;;;;5034069;28;20049;-78
2021/12/01 04:17:28;;;;;;;0.40;0.40;;;9.40;99.90;;;;;;5016572;28;20045;-78
2021/12/01 04:19:53;;;;;;;0.40;0.40;;;9.40;99.90;;;;;;5033938;28;20163;-78
2021/12/01 04:22:19;;;;;;;0.40;0.40;;;9.40;99.90;;;;;;5034216;28;20100;-77
2021/12/01 04:24:45;;;;;;;0.60;0.60;;;9.40;99.90;;;;;;5034143;28;20045;-78
2021/12/01 04:27:10;;;;;;;0.65;0.65;;;9.40;99.90;;;;;;5034678;28;20156;-77
2021/12/01 04:29:37;;;;;;;0.40;0.40;;;9.30;99.90;;;;;;5034049;28;20068;-78
2021/12/01 04:32:03;;;;;;;0.40;0.40;;;9.30;99.90;;;;;;5034047;28;20068;-78
2021/12/01 04:34:29;;;;;;;0.40;0.40;;;9.30;99.90;;;;;;5034057;28;20045;-77
2021/12/01 04:36:54;;;;;;;0.40;0.40;;;9.30;99.90;;;;;;5033982;28;20136;-78
2021/12/01 04:39:21;;;;;;;4.28;1.58;;;9.30;99.90;;;;;;5033725;28;20080;-77
2021/12/01 04:41:51;;;;;;;0.50;0.50;;;9.30;99.90;;;;;;5033919;28;20041;-77
2021/12/01 04:44:19;;;;;;;0.50;0.50;;;9.20;99.90;;;;;;5033887;28;20128;-77
2021/12/01 04:46:46;;;;;;;0.50;0.50;;;9.20;99.90;;;;;;5033991;28;20081;-78
2021/12/01 04:49:19;;;;;;;0.50;0.50;;;9.20;99.90;;;;;;5033728;28;20055;-77
2021/12/01 04:51:47;;;;;;;0.60;0.60;;;9.20;99.90;;;;;;5033815;28;20136;-78
2021/12/01 04:54:13;;;;;;;0.50;0.50;;;9.20;99.90;;;;;;5033398;28;20592;-77
2021/12/01 04:56:40;;;;;;;0.40;0.40;;;9.20;99.90;;;;;;5033700;28;20045;-78
2021/12/01 04:59:06;;;;;;;0.40;0.40;;;9.10;99.90;;;;;;5033623;28;20040;-77
2021/12/01 05:01:34;;;;;;;0.50;0.50;;;9.10;99.90;;;;;;5033496;28;20041;-77
2021/12/01 05:04:00;;;;;;;0.40;0.40;;;9.10;99.90;;;;;;5015950;28;20041;-78
2021/12/01 05:06:25;;;;;;;0.52;0.52;;;9.10;99.90;;;;;;5033634;28;20042;-77
2021/12/01 05:08:51;;;;;;;0.70;0.70;;;9.00;99.90;;;;;;5033552;28;20037;-77
2021/12/01 05:11:16;;;;;;;0.40;0.40;;;9.00;99.90;;;;;;5033685;28;20068;-77
2021/12/01 05:13:42;;;;;;;0.40;0.40;;;9.00;99.90;;;;;;5032078;28;20056;-77
2021/12/01 05:16:08;;;;;;;0.50;0.50;;;9.00;99.90;;;;;;5032739;28;20490;-78
2021/12/01 05:18:33;;;;;;;0.40;0.40;;;9.00;99.90;;;;;;5033399;28;20397;-77
2021/12/01 05:20:59;;;;;;;0.40;0.40;;;8.90;99.90;;;;;;5032140;28;20061;-77
2021/12/01 05:23:25;;;;;;;0.40;0.40;;;8.90;99.90;;;;;;5033335;28;20064;-77
2021/12/01 05:25:50;;;;;;;0.40;0.40;;;8.90;99.90;;;;;;5033371;28;20056;-77
2021/12/01 05:28:16;;;;;;;0.40;0.40;;;8.80;99.90;;;;;;5033361;28;20091;-77
2021/12/01 05:30:42;;;;;;;0.40;0.40;;;8.80;99.90;;;;;;5033395;28;20095;-76
2021/12/01 05:33:09;;;;;;;0.50;0.50;;;8.80;99.90;;;;;;5033247;28;20049;-78
2021/12/01 05:35:35;;;;;;;0.40;0.40;;;8.80;99.90;;;;;;5032990;28;20053;-77
2021/12/01 05:38:03;;;;;;;0.40;0.40;;;8.80;99.90;;;;;;5033210;28;20045;-78
2021/12/01 05:40:28;;;;;;;0.50;0.50;;;8.70;99.90;;;;;;5033674;28;20042;-77
2021/12/01 05:42:54;;;;;;;0.40;0.40;;;8.70;99.90;;;;;;5033354;28;20393;-77
2021/12/01 05:45:20;;;;;;;0.40;0.40;;;8.70;99.90;;;;;;5033230;28;20045;-77
2021/12/01 05:47:45;;;;;;;0.40;0.40;;;8.70;99.90;;;;;;5032895;28;20041;-77
2021/12/01 05:50:11;;;;;;;0.52;0.52;;;8.70;99.90;;;;;;5032959;28;20040;-77
2021/12/01 05:52:39;;;;;;;0.60;0.60;;;8.70;99.90;;;;;;5033733;28;20046;-77
2021/12/01 05:55:06;;;;;;;0.40;0.40;;;8.60;99.90;;;;;;5033139;28;20053;-78
2021/12/01 05:57:32;;;;;;;0.40;0.40;;;8.60;99.90;;;;;;5032808;28;20520;-78
2021/12/01 05:59:59;;;;;;;0.50;0.50;;;8.60;99.90;;;;;;5033196;28;20033;-77
2021/12/01 06:02:26;;;;;;;0.40;0.40;;;8.60;99.90;;;;;;5033023;28;20060;-79
2021/12/01 06:04:52;;;;;;;0.97;0.97;;;8.60;99.90;;;;;;5016520;28;20055;-78
2021/12/01 06:07:18;;;;;;;0.47;0.47;;;8.60;99.90;;;;;;5037295;28;20045;-77
2021/12/01 06:09:44;;;;;;;0.40;0.40;;;8.50;99.90;;;;;;5036537;28;20486;-77
2021/12/01 06:12:12;;;;;;;0.50;0.50;;;8.50;99.90;;;;;;5036586;28;20041;-78
2021/12/01 06:14:39;;;;;;;0.95;0.85;;;8.50;99.90;;;;;;5018880;28;20137;-77
2021/12/01 06:17:05;;;;;;;0.40;0.40;;;8.50;99.90;;;;;;5036548;28;20049;-79
2021/12/01 06:19:30;;;;;;;0.40;0.40;;;8.50;99.90;;;;;;5036556;28;20099;-77
2021/12/01 06:21:56;;;;;;;0.40;0.40;;;8.40;99.90;;;;;;5036829;28;20389;-79
2021/12/01 06:24:21;;;;;;;0.40;0.40;;;8.50;99.90;;;;;;5036507;28;20037;-79
2021/12/01 06:26:48;;;;;;;0.60;0.60;;;8.40;99.90;;;;;;5036400;28;20045;-79
2021/12/01 06:29:14;;;;;;;0.75;0.75;;;8.40;99.90;;;;;;5036519;28;20133;-78
2021/12/01 06:31:39;;;;;;;0.50;0.50;;;8.40;99.90;;;;;;5018623;28;20436;-79
2021/12/01 06:34:05;;;;;;;0.50;0.50;;;8.40;99.90;;;;;;5036272;28;20049;-77
2021/12/01 06:36:31;;;;;;;0.40;0.40;;;8.40;99.90;;;;;;5035972;28;20054;-78
2021/12/01 06:38:56;;;;;;;0.40;0.40;;;8.40;99.90;;;;;;5036046;28;20037;-78
2021/12/01 06:41:22;;;;;;;0.40;0.40;;;8.40;99.90;;;;;;5036214;28;20397;-78
2021/12/01 06:43:48;;;;;;;0.50;0.50;;;8.40;99.90;;;;;;5035981;28;20060;-78
2021/12/01 06:46:13;;;;;;;0.50;0.50;;;8.40;99.90;;;;;;5035975;28;20132;-80
2021/12/01 06:48:39;;;;;;;0.50;0.50;;;8.40;99.90;;;;;;5018435;28;20553;-79
2021/12/01 06:51:04;;;;;;;0.50;0.50;;;8.40;99.90;;;;;;5035870;28;20124;-81
2021/12/01 06:53:30;;;;;;;0.40;0.40;;;8.40;99.90;;;;;;5035843;28;20050;-82
2021/12/01 06:55:56;;;;;;;0.50;0.50;;;8.40;99.90;;;;;;5036103;28;20049;-81
2021/12/01 06:58:21;;;;;;;0.43;0.43;;;8.30;99.90;;;;;;5035710;28;20037;-80
2021/12/01 07:00:47;;;;;;;0.60;0.60;;;8.40;99.90;;;;;;5035766;28;20045;-79
2021/12/01 07:03:13;;;;;;;0.60;0.60;;;8.30;99.90;;;;;;5035634;28;20128;-81
2021/12/01 07:05:38;;;;;;;0.40;0.40;;;8.30;99.90;;;;;;5035667;28;20058;-78
2021/12/01 07:08:05;;;;;;;0.50;0.50;;;8.30;99.90;;;;;;5035882;28;20051;-79
2021/12/01 07:10:30;;;;;;;0.50;0.50;;;8.30;99.90;;;;;;5035425;28;20045;-81
2021/12/01 07:12:56;;;;;;;1.05;0.95;;;8.30;99.90;;;;;;5035510;28;20060;-80
2021/12/01 07:15:22;;;;;;;1.35;1.25;;;8.30;99.90;;;;;;5035586;28;20053;-76
2021/12/01 07:17:48;;;;;;;0.50;0.50;;;8.30;99.90;;;;;;5034297;28;20494;-80
2021/12/01 07:20:14;;;;;;;0.40;0.40;;;8.30;99.90;;;;;;5034990;28;20111;-82
2021/12/01 07:22:42;;;;;;;0.50;0.50;;;8.30;99.90;;;;;;5035411;28;20493;-81
2021/12/01 07:25:07;;;;;;;1.58;1.25;;;8.30;99.90;;;;;;5034301;28;20375;-79
2021/12/01 07:27:33;;;;;;;0.40;0.40;;;8.30;99.90;;;;;;5033685;28;20048;-79
2021/12/01 07:29:59;;;;;;;0.40;0.40;;;8.20;99.90;;;;;;5035207;28;20128;-78
2021/12/01 07:32:25;;;;;;;0.50;0.50;;;8.20;99.90;;;;;;5035000;28;20049;-78
2021/12/01 07:34:50;;;;;;;0.40;0.40;;;8.20;99.90;;;;;;5035386;28;20041;-79
2021/12/01 07:37:17;;;;;;;0.60;0.60;;;8.20;99.90;;;;;;5035312;28;20083;-80
2021/12/01 07:39:44;;;;;;;;;;;8.20;99.90;;;;;;5035292;28;20041;-79
2021/12/01 07:42:10;;;;;;;0.47;0.47;;;8.20;99.90;;;;;;5017231;28;20123;-79
2021/12/01 07:44:36;;;;;;;0.50;0.50;;;8.20;99.90;;;;;;5034838;28;20120;-79
2021/12/01 07:47:02;;;;;;;0.50;0.50;;;8.20;99.90;;;;;;5034779;28;20049;-79
2021/12/01 07:49:28;;;;;;;0.50;0.50;;;8.20;99.90;;;;;;5034908;28;20052;-79
2021/12/01 07:51:53;;;;;;;0.40;0.40;;;8.20;99.90;;;;;;5034947;28;20045;-80
2021/12/01 07:54:19;;;;;;;0.40;0.40;;;8.20;99.90;;;;;;5034696;28;20049;-79
2021/12/01 07:56:45;;;;;;;0.50;0.50;;;8.20;99.90;;;;;;5032872;28;20060;-81
2021/12/01 07:59:14;;;;;;;0.60;0.60;;;8.20;99.90;;;;;;5032888;28;20124;-79
2021/12/01 08:01:41;;;;;;;1.00;0.50;;;8.20;99.90;;;;;;5034446;28;20045;-81
2021/12/01 08:04:06;;;;;;;0.82;0.82;;;8.30;99.90;;;;;;5034470;28;20566;-80
2021/12/01 08:06:33;;;;;;;0.50;0.50;;;8.30;99.90;;;;;;5034491;28;20088;-78
2021/12/01 08:09:01;;;;;;;0.40;0.40;;;8.30;99.90;;;;;;5034336;28;20481;-78
2021/12/01 08:11:28;;;;;;;0.50;0.50;;;8.30;99.90;;;;;;5034326;28;20057;-81
2021/12/01 08:13:54;;;;;;;0.50;0.50;;;8.30;99.90;;;;;;5034214;28;20041;-80
2021/12/01 08:16:19;;;;;;;0.40;0.40;;;8.30;99.90;;;;;;5034217;28;20056;-79
2021/12/01 08:18:50;;;;;;;0.50;0.50;;;8.30;99.90;;;;;;5034238;28;20106;-79
2021/12/01 08:21:16;;;;;;;0.50;0.50;;;8.30;99.90;;;;;;5034361;28;20112;-79
2021/12/01 08:23:42;;;;;;;0.50;0.50;;;8.30;99.90;;;;;;5034218;28;20096;-79
2021/12/01 08:26:08;;;;;;;0.50;0.50;;;8.30;99.90;;;;;;5034168;28;20045;-82
2021/12/01 08:28:33;;;;;;;0.70;0.70;;;8.30;99.90;;;;;;5033977;28;20044;-81
2021/12/01 08:30:59;;;;;;;0.52;0.52;;;8.60;99.90;;;;;;5034054;28;20104;-80
2021/12/01 08:33:25;;;;;;;0.50;0.50;;;8.40;99.90;;;;;;5034046;28;20059;-78
2021/12/01 08:35:51;;;;;;;0.45;0.45;;;8.50;99.90;;;;;;5033697;28;20037;-79
2021/12/01 08:38:17;;;;;;;0.50;0.50;;;8.50;99.90;;;;;;5033826;28;20041;-79
2021/12/01 08:40:42;;;;;;;0.50;0.50;;;8.50;99.90;;;;;;5033949;28;20107;-78
2021/12/01 08:43:08;;;;;;;0.50;0.50;;;8.60;99.90;;;;;;5033974;28;20132;-79
2021/12/01 08:45:34;;;;;;;0.60;0.60;;;8.60;99.90;;;;;;5033648;28;20084;-80
2021/12/01 08:48:03;;;;;;;0.52;0.52;;;8.60;99.90;;;;;;5033782;28;20085;-79
2021/12/01 08:50:28;;;;;;;0.47;0.47;;;8.60;99.90;;;;;;5033748;28;20084;-78
2021/12/01 08:52:54;;;;;;;0.40;0.40;;;8.60;99.90;;;;;;5000035;28;20080;-79
2021/12/01 08:55:22;;;;;;;0.40;0.40;;;8.60;99.90;;;;;;5033712;28;20107;-79
2021/12/01 08:57:49;;;;;;;0.50;0.50;;;8.60;99.90;;;;;;5033672;28;20049;-78
2021/12/01 09:00:15;;;;;;;0.50;0.50;;;8.60;99.90;;;;;;5033595;28;20052;-78
2021/12/01 09:02:40;;;;;;;0.50;0.50;;;8.70;99.90;;;;;;5033650;28;20555;-83
2021/12/01 09:05:06;;;;;;;0.70;0.70;;;8.70;99.90;;;;;;5033681;28;20045;-81
2021/12/01 09:07:32;;;;;;;0.50;0.50;;;8.70;99.90;;;;;;5033667;28;20132;-78
2021/12/01 09:09:58;;;;;;;2.53;1.20;;;8.70;99.90;;;;;;5033565;28;20087;-80
2021/12/01 09:12:23;;;;;;;0.52;0.52;;;8.70;99.90;;;;;;5016194;28;20065;-79
2021/12/01 09:14:51;;;;;;;0.50;0.50;;;8.70;99.90;;;;;;5016223;28;20079;-78
2021/12/01 09:17:17;;;;;;;0.57;0.57;;;8.70;99.90;;;;;;5033632;28;20053;-79
2021/12/01 09:19:42;;;;;;;0.50;0.50;;;8.70;99.90;;;;;;5033633;28;20047;-79
2021/12/01 09:22:08;;;;;;;0.40;0.40;;;8.70;99.90;;;;;;5034002;28;20393;-76
2021/12/01 09:24:34;;;;;;;0.55;0.55;;;8.70;99.90;;;;;;5034082;28;20085;-78
2021/12/01 09:27:00;;;;;;;0.40;0.40;;;8.70;99.90;;;;;;5034394;28;20041;-80
2021/12/01 09:29:27;;;;;;;0.52;0.52;;;8.70;99.90;;;;;;5036784;28;20077;-78
2021/12/01 09:31:55;;;;;;;0.40;0.40;;;8.70;99.90;;;;;;5035368;28;20132;-79
2021/12/01 09:34:20;;;;;;;0.50;0.50;;;8.70;99.90;;;;;;5034007;28;20045;-79
2021/12/01 09:36:46;;;;;;;0.75;0.75;;;8.70;99.90;;;;;;5033789;28;20055;-80
2021/12/01 09:39:12;;;;;;;0.50;0.50;;;8.70;99.90;;;;;;5034089;28;20037;-79
2021/12/01 09:41:38;;;;;;;0.40;0.40;;;8.80;99.90;;;;;;5036847;28;20053;-80
2021/12/01 09:44:05;;;;;;;0.50;0.50;;;8.80;99.90;;;;;;5047733;28;20037;-77
2021/12/01 09:46:30;;;;;;;0.50;0.50;;;8.70;99.90;;;;;;5056029;28;20068;-82
2021/12/01 09:48:57;;;;;;;0.50;0.50;;;8.80;99.90;;;;;;5020558;28;20288;-82
2021/12/01 09:51:22;;;;;;;0.50;0.50;;;8.90;99.90;;;;;;5037198;28;20052;-76
2021/12/01 09:53:49;;;;;;;0.55;0.55;;;8.90;99.90;;;;;;5037297;28;20288;-80
2021/12/01 09:56:15;;;;;;;0.40;0.40;;;8.90;99.90;;;;;;5037554;28;20132;-77
2021/12/01 09:58:43;;;;;;;0.40;0.40;;;9.00;99.90;;;;;;5036559;28;20046;-79
2021/12/01 10:01:16;;;;;;;0.50;0.50;;;8.90;99.90;;;;;;5036920;28;20099;-79
2021/12/01 10:03:43;;;;;;;0.50;0.50;;;8.90;99.90;;;;;;5019641;28;20096;-83
2021/12/01 10:06:13;;;;;;;1.48;1.38;;;8.90;99.90;;;;;;5037866;28;20101;-81
2021/12/01 10:08:51;;;;;;;0.47;0.47;;;8.90;99.90;;;;;;5039849;28;20037;-80
2021/12/01 10:11:24;;;;;;;4.38;0.70;;;8.90;99.90;;;;;;5037410;28;20060;-79
2021/12/01 10:13:59;;;;;;;0.47;0.47;;;8.90;99.90;;;;;;5037507;28;20049;-77
2021/12/01 10:16:30;;;;;;;0.50;0.50;;;8.80;99.90;;;;;;5036753;28;20045;-78
2021/12/01 10:18:59;;;;;;;0.45;0.45;;;8.80;99.90;;;;;;5019172;28;20046;-79
2021/12/01 10:21:37;;;;;;;1.58;1.35;;;8.80;99.90;;;;;;5036850;28;20084;-78
2021/12/01 10:24:20;;;;;;;0.40;0.40;;;8.70;99.90;;;;;;5018966;28;20129;-78
2021/12/01 10:26:51;;;;;;;0.50;0.50;;;8.70;99.90;;;;;;5036351;28;20041;-80
2021/12/01 10:29:20;;;;;;;0.60;0.60;;;8.70;99.90;;;;;;5036770;28;20037;-80
2021/12/01 10:31:53;;;;;;;0.40;0.40;;;8.70;99.90;;;;;;5036536;28;20057;-80
2021/12/01 10:34:32;;;;;;;0.40;0.40;;;8.80;99.90;;;;;;5018232;28;20485;-80
2021/12/01 10:37:14;;;;;;;0.40;0.40;;;8.80;99.90;;;;;;5035369;28;20128;-78
2021/12/01 10:39:44;;;;;;;0.43;0.43;;;8.80;99.90;;;;;;5037516;28;20041;-81
2021/12/01 10:42:12;;;;;;;0.43;0.43;;;8.80;99.90;;;;;;5037627;28;20049;-81
2021/12/01 10:44:57;;;;;;;0.52;0.52;;;8.80;99.90;;;;;;5035982;28;20084;-82
2021/12/01 10:47:23;;;;;;;2.45;2.25;;;8.80;99.90;;;;;;5036439;28;20084;-80
2021/12/01 10:49:48;;;;;;;26.75;1.52;;;8.80;99.90;;;;;;5034960;28;20508;-80
2021/12/01 10:52:37;;;;;;;0.40;0.40;;;8.80;99.90;;;;;;5035895;28;20485;-80
2021/12/01 10:55:11;;;;;;;;;;;8.80;99.90;;;;;;5036657;28;20052;-82
2021/12/01 10:57:49;;;;;;;0.50;0.50;;;8.80;99.90;;;;;;5036788;28;19991;-80
2021/12/01 11:00:26;;;;;;;0.55;0.55;;;8.80;99.90;;;;;;5036153;28;20045;-79
2021/12/01 11:02:53;;;;;;;0.70;0.70;;;8.80;99.90;;;;;;5035878;28;20053;-79
2021/12/01 11:05:30;;;;;;;0.50;0.50;;;8.80;99.90;;;;;;5035922;28;20111;-78
2021/12/01 11:07:56;;;;;;;0.50;0.50;;;8.80;99.90;;;;;;5035731;28;20481;-79
2021/12/01 11:10:25;;;;;;;2.23;0.50;;;8.80;99.90;;;;;;5035400;28;20050;-79
2021/12/01 11:12:59;;;;;;;0.60;0.60;;;8.90;99.90;;;;;;5035569;28;20486;-79
2021/12/01 11:15:32;;;;;;;0.60;0.60;;;8.90;99.90;;;;;;5036704;28;20045;-81
2021/12/01 11:17:59;;;;;;;0.40;0.40;;;9.00;99.90;;;;;;5038229;28;20041;-78
2021/12/01 11:20:42;;;;;;;0.40;0.40;;;9.00;99.90;;;;;;5035584;28;20401;-77
2021/12/01 11:23:16;;;;;;;0.40;0.40;;;9.10;99.90;;;;;;5035173;28;20504;-79
2021/12/01 11:25:43;;;;;;;0.40;0.40;;;9.10;99.90;;;;;;5035287;28;20394;-77
2021/12/01 11:28:15;;;;;;;0.40;0.40;;;9.20;99.90;;;;;;5035369;28;20049;-76
2021/12/01 11:30:45;;;;;;;0.40;0.40;;;9.10;99.90;;;;;;5035016;28;20504;-80
2021/12/01 11:33:14;;;;;;;0.40;0.40;;;9.10;99.90;;;;;;5035857;28;20164;-79
2021/12/01 11:35:41;;;;;;;0.50;0.50;;;9.20;99.90;;;;;;5035131;28;20042;-79
2021/12/01 11:38:09;;;;;;;0.40;0.40;;;9.20;99.90;;;;;;5035146;28;20389;-79
2021/12/01 11:40:35;;;;;;;28.27;3.22;;;9.30;99.90;;;;;;5034920;28;20402;-80
2021/12/01 11:43:00;;;;;;;0.40;0.40;;;9.20;99.90;;;;;;5034584;28;20045;-78
2021/12/01 11:45:26;;;;;;;0.82;0.82;;;9.20;99.90;;;;;;5034877;28;20041;-82
2021/12/01 11:47:53;;;;;;;0.40;0.40;;;9.30;99.90;;;;;;5035415;28;20489;-74
2021/12/01 11:50:31;;;;;;;1.25;1.15;;;9.20;99.90;;;;;;5034837;28;20085;-80
2021/12/01 11:53:15;;;;;;;0.40;0.40;;;9.40;99.90;;;;;;5034771;28;20537;-81
2021/12/01 11:55:56;;;;;;;3.63;1.88;;;9.20;99.90;;;;;;5034856;28;20071;-83
2021/12/01 11:58:41;;;;;;;1.42;0.68;;;9.20;99.90;;;;;;5034810;28;20107;-80
2021/12/01 12:01:22;;;;;;;0.63;0.63;;;9.20;99.90;;;;;;5030711;28;20481;-79
2021/12/01 12:03:54;;;;;;;0.50;0.50;;;9.20;99.90;;;;;;5033936;28;20045;-75
2021/12/01 12:06:19;;;;;;;0.82;0.60;;;9.20;99.90;;;;;;5034399;28;20397;-81
2021/12/01 12:08:54;;;;;;;0.40;0.40;;;9.40;99.90;;;;;;5034547;28;20041;-84
2021/12/01 12:11:40;;;;;;;5.80;1.98;;;9.10;99.90;;;;;;5016684;28;20045;-82
2021/12/01 12:14:11;;;;;;;0.40;0.40;;;9.10;99.90;;;;;;5034490;28;20141;-80
2021/12/01 12:16:38;;;;;;;0.40;0.40;;;9.10;99.90;;;;;;5034515;28;20095;-82
2021/12/01 12:19:04;;;;;;;0.60;0.60;;;9.10;99.90;;;;;;5034323;28;20129;-81
2021/12/01 12:24:16;;;;;;;0.40;0.40;;;9.00;99.90;;;;;;5034237;28;20049;-81
2021/12/01 12:26:45;;;;;;;0.50;0.50;;;9.00;99.90;;;;;;5034486;28;20046;-83
2021/12/01 12:29:18;;;;;;;1.15;0.80;;;9.00;99.90;;;;;;5034108;28;20041;-81
2021/12/01 12:31:46;;;;;;;0.40;0.40;;;8.90;99.90;;;;;;5034312;28;20049;-83
2021/12/01 12:34:20;;;;;;;0.50;0.50;;;8.90;99.90;;;;;;5032524;28;20077;-82
2021/12/01 12:36:57;;;;;;;0.50;0.50;;;8.90;99.90;;;;;;5034053;28;20045;-82
2021/12/01 12:39:28;;;;;;;0.40;0.40;;;8.90;99.90;;;;;;5033893;28;20104;-83
2021/12/01 12:41:54;;;;;;;0.40;0.40;;;8.80;99.90;;;;;;5033741;28;20053;-82
2021/12/01 12:44:27;;;;;;;0.40;0.40;;;8.80;99.90;;;;;;5033734;28;20489;-82
2021/12/01 12:47:08;;;;;;;0.40;0.40;;;8.80;99.90;;;;;;5033831;28;20393;-81
2021/12/01 12:49:35;;;;;;;0.40;0.40;;;8.80;99.90;;;;;;5033685;28;20144;-82
2021/12/01 12:52:24;;;;;;;0.50;0.50;;;8.70;99.90;;;;;;5033712;28;20053;-84
2021/12/01 12:54:54;;;;;;;0.40;0.40;;;8.80;99.90;;;;;;5033329;28;20053;-79
2021/12/01 12:57:22;;;;;;;2.65;2.45;;;8.70;99.90;;;;;;5033708;28;20068;-80
2021/12/01 12:59:47;;;;;;;0.40;0.40;;;8.60;99.90;;;;;;5033737;28;20041;-81
2021/12/01 13:02:14;;;;;;;0.57;0.57;;;8.60;99.90;;;;;;5033795;28;20092;-82
2021/12/01 13:04:54;;;;;;;0.50;0.50;;;8.60;99.90;;;;;;5016007;28;20088;-82
2021/12/01 13:07:32;;;;;;;0.40;0.40;;;8.60;99.90;;;;;;5033587;28;20110;-82
2021/12/01 13:10:22;;;;;;;0.50;0.50;;;8.50;99.90;;;;;;5034015;28;20045;-81
2021/12/01 13:13:01;;;;;;;1.67;1.55;;;8.60;99.90;;;;;;5034039;28;20136;-83